sensor_id;sensor_type;location;lat;lon;timestamp;P1;durP1;ratioP1;P2;durP2;ratioP2
33930;SDS011;20215;53.130;6.408;2022-12-07T00:02:25;1.23;;;0.50;;
33930;SDS011;20215;53.130;6.408;2022-12-07T00:04:51;1.83;;;0.60;;
33930;SDS011;20215;53.130;6.408;2022-12-07T00:07:16;1.02;;;0.55;;
33930;SDS011;20215;53.130;6.408;2022-12-07T00:09:42;1.42;;;0.50;;
33930;SDS011;20215;53.130;6.408;2022-12-07T00:12:07;1.20;;;0.60;;
33930;SDS011;20215;53.130;6.408;2022-12-07T00:14:33;1.98;;;0.57;;
33930;SDS011;20215;53.130;6.408;2022-12-07T00:16:58;1.27;;;0.55;;
33930;SDS011;20215;53.130;6.408;2022-12-07T00:19:24;1.08;;;0.47;;
33930;SDS011;20215;53.130;6.408;2022-12-07T00:21:50;4.25;;;1.45;;
33930;SDS011;20215;53.130;6.408;2022-12-07T00:24:15;1.90;;;0.70;;
33930;SDS011;20215;53.130;6.408;2022-12-07T00:26:41;1.35;;;0.50;;
33930;SDS011;20215;53.130;6.408;2022-12-07T00:29:12;1.25;;;0.38;;
33930;SDS011;20215;53.130;6.408;2022-12-07T00:31:46;1.17;;;0.52;;
33930;SDS011;20215;53.130;6.408;2022-12-07T00:34:13;4.03;;;1.00;;
33930;SDS011;20215;53.130;6.408;2022-12-07T00:36:40;2.22;;;0.38;;
33930;SDS011;20215;53.130;6.408;2022-12-07T00:39:06;6.53;;;1.45;;
33930;SDS011;20215;53.130;6.408;2022-12-07T00:41:32;1.58;;;1.13;;
33930;SDS011;20215;53.130;6.408;2022-12-07T00:43:57;0.95;;;0.40;;
33930;SDS011;20215;53.130;6.408;2022-12-07T00:46:23;0.80;;;0.30;;
33930;SDS011;20215;53.130;6.408;2022-12-07T00:48:49;3.42;;;0.82;;
33930;SDS011;20215;53.130;6.408;2022-12-07T00:51:16;2.28;;;0.50;;
33930;SDS011;20215;53.130;6.408;2022-12-07T00:53:43;0.63;;;0.60;;
33930;SDS011;20215;53.130;6.408;2022-12-07T00:56:13;1.25;;;0.70;;
33930;SDS011;20215;53.130;6.408;2022-12-07T00:58:41;0.85;;;0.40;;
33930;SDS011;20215;53.130;6.408;2022-12-07T01:01:07;4.00;;;0.60;;
33930;SDS011;20215;53.130;6.408;2022-12-07T01:03:34;1.92;;;0.50;;
33930;SDS011;20215;53.130;6.408;2022-12-07T01:05:59;0.82;;;0.40;;
33930;SDS011;20215;53.130;6.408;2022-12-07T01:08:26;1.83;;;0.50;;
33930;SDS011;20215;53.130;6.408;2022-12-07T01:11:05;0.60;;;0.20;;
33930;SDS011;20215;53.130;6.408;2022-12-07T01:13:32;2.78;;;0.40;;
33930;SDS011;20215;53.130;6.408;2022-12-07T01:16:00;2.10;;;0.40;;
33930;SDS011;20215;53.130;6.408;2022-12-07T01:18:27;1.67;;;0.50;;
33930;SDS011;20215;53.130;6.408;2022-12-07T01:20:58;0.30;;;0.10;;
33930;SDS011;20215;53.130;6.408;2022-12-07T01:23:27;1.15;;;0.50;;
33930;SDS011;20215;53.130;6.408;2022-12-07T01:25:54;1.65;;;0.28;;
33930;SDS011;20215;53.130;6.408;2022-12-07T01:28:23;2.25;;;0.60;;
33930;SDS011;20215;53.130;6.408;2022-12-07T01:30:56;0.95;;;0.25;;
33930;SDS011;20215;53.130;6.408;2022-12-07T01:33:23;2.10;;;0.55;;
33930;SDS011;20215;53.130;6.408;2022-12-07T01:35:48;1.38;;;0.52;;
33930;SDS011;20215;53.130;6.408;2022-12-07T01:38:14;3.75;;;0.57;;
33930;SDS011;20215;53.130;6.408;2022-12-07T01:40:39;2.40;;;0.30;;
33930;SDS011;20215;53.130;6.408;2022-12-07T01:43:13;0.55;;;0.30;;
33930;SDS011;20215;53.130;6.408;2022-12-07T01:45:43;2.50;;;0.38;;
33930;SDS011;20215;53.130;6.408;2022-12-07T01:48:09;2.17;;;0.52;;
33930;SDS011;20215;53.130;6.408;2022-12-07T01:50:37;2.03;;;0.40;;
33930;SDS011;20215;53.130;6.408;2022-12-07T01:53:06;0.95;;;0.20;;
33930;SDS011;20215;53.130;6.408;2022-12-07T01:55:35;0.70;;;0.32;;
33930;SDS011;20215;53.130;6.408;2022-12-07T01:58:03;2.38;;;0.80;;
33930;SDS011;20215;53.130;6.408;2022-12-07T02:00:30;2.65;;;0.55;;
33930;SDS011;20215;53.130;6.408;2022-12-07T02:02:57;2.28;;;0.77;;
33930;SDS011;20215;53.130;6.408;2022-12-07T02:05:34;0.85;;;0.52;;
33930;SDS011;20215;53.130;6.408;2022-12-07T02:08:02;1.85;;;0.20;;
33930;SDS011;20215;53.130;6.408;2022-12-07T02:10:30;0.65;;;0.22;;
33930;SDS011;20215;53.130;6.408;2022-12-07T02:21:16;1.17;;;0.55;;
33930;SDS011;20215;53.130;6.408;2022-12-07T02:23:58;0.65;;;0.30;;
33930;SDS011;20215;53.130;6.408;2022-12-07T02:29:38;0.82;;;0.30;;
33930;SDS011;20215;53.130;6.408;2022-12-07T02:34:47;1.25;;;0.40;;
33930;SDS011;20215;53.130;6.408;2022-12-07T02:39:59;2.00;;;0.40;;
33930;SDS011;20215;53.130;6.408;2022-12-07T02:42:49;4.15;;;0.30;;
33930;SDS011;20215;53.130;6.408;2022-12-07T02:47:46;1.63;;;0.28;;
33930;SDS011;20215;53.130;6.408;2022-12-07T02:50:17;2.92;;;0.60;;
33930;SDS011;20215;53.130;6.408;2022-12-07T02:52:44;0.82;;;0.20;;
33930;SDS011;20215;53.130;6.408;2022-12-07T02:55:10;1.80;;;0.35;;
33930;SDS011;20215;53.130;6.408;2022-12-07T03:00:09;2.05;;;0.30;;
33930;SDS011;20215;53.130;6.408;2022-12-07T03:02:46;1.13;;;0.68;;
33930;SDS011;20215;53.130;6.408;2022-12-07T03:05:34;1.52;;;0.47;;
33930;SDS011;20215;53.130;6.408;2022-12-07T03:18:21;1.77;;;0.35;;
33930;SDS011;20215;53.130;6.408;2022-12-07T03:20:50;0.63;;;0.10;;
33930;SDS011;20215;53.130;6.408;2022-12-07T03:23:18;0.68;;;0.22;;
33930;SDS011;20215;53.130;6.408;2022-12-07T03:25:47;0.98;;;0.22;;
33930;SDS011;20215;53.130;6.408;2022-12-07T03:28:16;1.65;;;0.40;;
33930;SDS011;20215;53.130;6.408;2022-12-07T03:30:46;2.58;;;0.40;;
33930;SDS011;20215;53.130;6.408;2022-12-07T03:33:29;1.00;;;0.40;;
33930;SDS011;20215;53.130;6.408;2022-12-07T03:36:04;2.10;;;0.57;;
33930;SDS011;20215;53.130;6.408;2022-12-07T03:41:08;2.05;;;0.43;;
33930;SDS011;20215;53.130;6.408;2022-12-07T03:43:37;1.10;;;0.20;;
33930;SDS011;20215;53.130;6.408;2022-12-07T03:46:18;5.13;;;0.52;;
33930;SDS011;20215;53.130;6.408;2022-12-07T03:51:49;1.35;;;0.30;;
33930;SDS011;20215;53.130;6.408;2022-12-07T03:56:55;2.15;;;0.82;;
33930;SDS011;20215;53.130;6.408;2022-12-07T03:59:22;1.83;;;0.40;;
33930;SDS011;20215;53.130;6.408;2022-12-07T04:01:55;1.55;;;0.35;;
33930;SDS011;20215;53.130;6.408;2022-12-07T04:04:23;1.10;;;0.38;;
33930;SDS011;20215;53.130;6.408;2022-12-07T04:06:50;0.50;;;0.35;;
33930;SDS011;20215;53.130;6.408;2022-12-07T04:09:15;0.82;;;0.43;;
33930;SDS011;20215;53.130;6.408;2022-12-07T04:11:42;1.15;;;0.80;;
33930;SDS011;20215;53.130;6.408;2022-12-07T04:14:08;1.33;;;0.73;;
33930;SDS011;20215;53.130;6.408;2022-12-07T04:16:46;2.08;;;0.47;;
33930;SDS011;20215;53.130;6.408;2022-12-07T04:19:13;2.70;;;0.80;;
33930;SDS011;20215;53.130;6.408;2022-12-07T04:21:39;1.20;;;0.20;;
33930;SDS011;20215;53.130;6.408;2022-12-07T04:24:05;2.78;;;0.63;;
33930;SDS011;20215;53.130;6.408;2022-12-07T04:26:31;1.35;;;0.45;;
33930;SDS011;20215;53.130;6.408;2022-12-07T04:28:57;2.92;;;0.40;;
33930;SDS011;20215;53.130;6.408;2022-12-07T04:31:23;1.90;;;0.60;;
33930;SDS011;20215;53.130;6.408;2022-12-07T04:33:49;0.82;;;0.32;;
33930;SDS011;20215;53.130;6.408;2022-12-07T04:36:14;1.02;;;0.30;;
33930;SDS011;20215;53.130;6.408;2022-12-07T04:38:40;1.10;;;0.40;;
33930;SDS011;20215;53.130;6.408;2022-12-07T04:41:06;1.38;;;0.40;;
33930;SDS011;20215;53.130;6.408;2022-12-07T04:43:33;0.77;;;0.20;;
33930;SDS011;20215;53.130;6.408;2022-12-07T04:45:59;2.30;;;0.55;;
33930;SDS011;20215;53.130;6.408;2022-12-07T04:48:25;1.08;;;0.30;;
33930;SDS011;20215;53.130;6.408;2022-12-07T04:50:50;1.50;;;0.22;;
33930;SDS011;20215;53.130;6.408;2022-12-07T04:53:16;1.02;;;0.40;;
33930;SDS011;20215;53.130;6.408;2022-12-07T04:55:42;3.75;;;0.63;;
33930;SDS011;20215;53.130;6.408;2022-12-07T04:58:07;0.98;;;0.30;;
33930;SDS011;20215;53.130;6.408;2022-12-07T05:00:33;0.52;;;0.30;;
33930;SDS011;20215;53.130;6.408;2022-12-07T05:02:58;0.77;;;0.10;;
33930;SDS011;20215;53.130;6.408;2022-12-07T05:05:24;0.82;;;0.20;;
33930;SDS011;20215;53.130;6.408;2022-12-07T05:07:50;1.10;;;0.30;;
33930;SDS011;20215;53.130;6.408;2022-12-07T05:10:15;0.40;;;0.20;;
33930;SDS011;20215;53.130;6.408;2022-12-07T05:12:41;0.57;;;0.40;;
33930;SDS011;20215;53.130;6.408;2022-12-07T05:15:07;0.55;;;0.38;;
33930;SDS011;20215;53.130;6.408;2022-12-07T05:17:33;0.70;;;0.40;;
33930;SDS011;20215;53.130;6.408;2022-12-07T05:19:58;1.45;;;0.32;;
33930;SDS011;20215;53.130;6.408;2022-12-07T05:22:24;3.92;;;0.77;;
33930;SDS011;20215;53.130;6.408;2022-12-07T05:24:53;0.75;;;0.30;;
33930;SDS011;20215;53.130;6.408;2022-12-07T05:27:19;0.80;;;0.35;;
33930;SDS011;20215;53.130;6.408;2022-12-07T05:29:45;1.40;;;0.30;;
33930;SDS011;20215;53.130;6.408;2022-12-07T05:32:10;0.38;;;0.10;;
33930;SDS011;20215;53.130;6.408;2022-12-07T05:34:36;1.50;;;0.60;;
33930;SDS011;20215;53.130;6.408;2022-12-07T05:37:01;2.42;;;0.38;;
33930;SDS011;20215;53.130;6.408;2022-12-07T05:39:27;1.77;;;0.38;;
33930;SDS011;20215;53.130;6.408;2022-12-07T05:41:53;1.38;;;0.40;;
33930;SDS011;20215;53.130;6.408;2022-12-07T05:44:37;0.75;;;0.43;;
33930;SDS011;20215;53.130;6.408;2022-12-07T05:47:10;1.67;;;0.22;;
33930;SDS011;20215;53.130;6.408;2022-12-07T05:49:37;4.35;;;0.50;;
33930;SDS011;20215;53.130;6.408;2022-12-07T05:52:03;0.50;;;0.32;;
33930;SDS011;20215;53.130;6.408;2022-12-07T05:54:28;1.55;;;0.47;;
33930;SDS011;20215;53.130;6.408;2022-12-07T05:56:54;1.90;;;0.68;;
33930;SDS011;20215;53.130;6.408;2022-12-07T05:59:20;0.98;;;0.35;;
33930;SDS011;20215;53.130;6.408;2022-12-07T06:01:49;2.72;;;0.50;;
33930;SDS011;20215;53.130;6.408;2022-12-07T06:04:16;4.43;;;0.47;;
33930;SDS011;20215;53.130;6.408;2022-12-07T06:06:42;2.47;;;0.73;;
33930;SDS011;20215;53.130;6.408;2022-12-07T06:09:08;0.47;;;0.40;;
33930;SDS011;20215;53.130;6.408;2022-12-07T06:11:34;2.63;;;0.43;;
33930;SDS011;20215;53.130;6.408;2022-12-07T06:14:18;0.50;;;0.40;;
33930;SDS011;20215;53.130;6.408;2022-12-07T06:16:43;2.13;;;0.68;;
33930;SDS011;20215;53.130;6.408;2022-12-07T06:19:09;1.05;;;0.52;;
33930;SDS011;20215;53.130;6.408;2022-12-07T06:21:35;1.20;;;0.35;;
33930;SDS011;20215;53.130;6.408;2022-12-07T06:24:00;0.40;;;0.30;;
33930;SDS011;20215;53.130;6.408;2022-12-07T06:26:26;0.45;;;0.30;;
33930;SDS011;20215;53.130;6.408;2022-12-07T06:28:52;0.85;;;0.40;;
33930;SDS011;20215;53.130;6.408;2022-12-07T06:31:18;0.65;;;0.32;;
33930;SDS011;20215;53.130;6.408;2022-12-07T06:33:43;1.60;;;0.20;;
33930;SDS011;20215;53.130;6.408;2022-12-07T06:36:09;1.25;;;0.40;;
33930;SDS011;20215;53.130;6.408;2022-12-07T06:38:35;1.38;;;0.35;;
33930;SDS011;20215;53.130;6.408;2022-12-07T06:41:00;0.88;;;0.47;;
33930;SDS011;20215;53.130;6.408;2022-12-07T06:43:26;1.30;;;0.65;;
33930;SDS011;20215;53.130;6.408;2022-12-07T06:45:52;2.42;;;0.35;;
33930;SDS011;20215;53.130;6.408;2022-12-07T06:48:17;0.52;;;0.15;;
33930;SDS011;20215;53.130;6.408;2022-12-07T06:50:46;0.80;;;0.17;;
33930;SDS011;20215;53.130;6.408;2022-12-07T06:53:13;1.77;;;0.32;;
33930;SDS011;20215;53.130;6.408;2022-12-07T06:55:39;1.08;;;0.40;;
33930;SDS011;20215;53.130;6.408;2022-12-07T06:58:04;2.33;;;0.40;;
33930;SDS011;20215;53.130;6.408;2022-12-07T07:00:30;0.63;;;0.20;;
33930;SDS011;20215;53.130;6.408;2022-12-07T07:02:55;1.88;;;0.20;;
33930;SDS011;20215;53.130;6.408;2022-12-07T07:05:21;1.35;;;0.50;;
33930;SDS011;20215;53.130;6.408;2022-12-07T07:07:48;0.80;;;0.30;;
33930;SDS011;20215;53.130;6.408;2022-12-07T07:10:14;2.20;;;0.50;;
33930;SDS011;20215;53.130;6.408;2022-12-07T07:12:39;1.08;;;0.70;;
33930;SDS011;20215;53.130;6.408;2022-12-07T07:15:05;0.38;;;0.20;;
33930;SDS011;20215;53.130;6.408;2022-12-07T07:17:31;1.13;;;0.22;;
33930;SDS011;20215;53.130;6.408;2022-12-07T07:19:57;0.65;;;0.25;;
33930;SDS011;20215;53.130;6.408;2022-12-07T07:22:22;0.95;;;0.30;;
33930;SDS011;20215;53.130;6.408;2022-12-07T07:24:48;0.98;;;0.20;;
33930;SDS011;20215;53.130;6.408;2022-12-07T07:27:13;5.22;;;1.33;;
33930;SDS011;20215;53.130;6.408;2022-12-07T07:29:39;0.77;;;0.60;;
33930;SDS011;20215;53.130;6.408;2022-12-07T07:32:05;1.30;;;0.20;;
33930;SDS011;20215;53.130;6.408;2022-12-07T07:34:30;0.40;;;0.20;;
33930;SDS011;20215;53.130;6.408;2022-12-07T07:36:56;1.02;;;0.40;;
33930;SDS011;20215;53.130;6.408;2022-12-07T07:39:21;1.85;;;0.45;;
33930;SDS011;20215;53.130;6.408;2022-12-07T07:41:47;0.93;;;0.30;;
33930;SDS011;20215;53.130;6.408;2022-12-07T07:44:12;1.67;;;0.40;;
33930;SDS011;20215;53.130;6.408;2022-12-07T07:46:38;1.88;;;0.95;;
33930;SDS011;20215;53.130;6.408;2022-12-07T07:49:04;0.98;;;0.30;;
33930;SDS011;20215;53.130;6.408;2022-12-07T07:51:30;1.67;;;0.65;;
33930;SDS011;20215;53.130;6.408;2022-12-07T07:53:55;1.08;;;0.45;;
33930;SDS011;20215;53.130;6.408;2022-12-07T07:56:21;0.63;;;0.30;;
33930;SDS011;20215;53.130;6.408;2022-12-07T07:58:47;1.30;;;0.30;;
33930;SDS011;20215;53.130;6.408;2022-12-07T08:01:16;1.73;;;0.20;;
33930;SDS011;20215;53.130;6.408;2022-12-07T08:03:41;0.50;;;0.30;;
33930;SDS011;20215;53.130;6.408;2022-12-07T08:06:07;0.60;;;0.30;;
33930;SDS011;20215;53.130;6.408;2022-12-07T08:08:33;1.65;;;0.55;;
33930;SDS011;20215;53.130;6.408;2022-12-07T08:10:58;1.80;;;0.57;;
33930;SDS011;20215;53.130;6.408;2022-12-07T08:13:27;2.05;;;0.65;;
33930;SDS011;20215;53.130;6.408;2022-12-07T08:15:53;1.13;;;0.60;;
33930;SDS011;20215;53.130;6.408;2022-12-07T08:18:18;1.13;;;0.50;;
33930;SDS011;20215;53.130;6.408;2022-12-07T08:20:44;1.92;;;0.60;;
33930;SDS011;20215;53.130;6.408;2022-12-07T08:23:09;3.05;;;1.05;;
33930;SDS011;20215;53.130;6.408;2022-12-07T08:25:36;2.08;;;1.08;;
33930;SDS011;20215;53.130;6.408;2022-12-07T08:28:02;1.27;;;0.68;;
33930;SDS011;20215;53.130;6.408;2022-12-07T08:30:28;1.73;;;0.80;;
33930;SDS011;20215;53.130;6.408;2022-12-07T08:32:54;4.20;;;0.77;;
33930;SDS011;20215;53.130;6.408;2022-12-07T08:35:20;2.40;;;0.80;;
33930;SDS011;20215;53.130;6.408;2022-12-07T08:37:46;2.97;;;0.68;;
33930;SDS011;20215;53.130;6.408;2022-12-07T08:40:12;2.55;;;0.73;;
33930;SDS011;20215;53.130;6.408;2022-12-07T08:42:40;2.13;;;0.93;;
33930;SDS011;20215;53.130;6.408;2022-12-07T08:45:13;1.60;;;1.30;;
33930;SDS011;20215;53.130;6.408;2022-12-07T08:47:47;3.50;;;1.30;;
33930;SDS011;20215;53.130;6.408;2022-12-07T08:50:27;2.55;;;1.20;;
33930;SDS011;20215;53.130;6.408;2022-12-07T08:52:54;2.70;;;1.52;;
33930;SDS011;20215;53.130;6.408;2022-12-07T08:55:21;4.57;;;1.50;;
33930;SDS011;20215;53.130;6.408;2022-12-07T08:57:48;4.50;;;1.33;;
33930;SDS011;20215;53.130;6.408;2022-12-07T09:00:14;2.15;;;1.25;;
33930;SDS011;20215;53.130;6.408;2022-12-07T09:02:42;3.58;;;1.38;;
33930;SDS011;20215;53.130;6.408;2022-12-07T09:05:08;2.67;;;1.05;;
33930;SDS011;20215;53.130;6.408;2022-12-07T09:07:34;2.20;;;1.00;;
33930;SDS011;20215;53.130;6.408;2022-12-07T09:10:01;3.33;;;1.20;;
33930;SDS011;20215;53.130;6.408;2022-12-07T09:12:27;2.42;;;1.10;;
33930;SDS011;20215;53.130;6.408;2022-12-07T09:14:53;3.00;;;1.45;;
33930;SDS011;20215;53.130;6.408;2022-12-07T09:17:19;3.45;;;1.52;;
33930;SDS011;20215;53.130;6.408;2022-12-07T09:19:44;2.28;;;1.20;;
33930;SDS011;20215;53.130;6.408;2022-12-07T09:22:10;1.73;;;1.20;;
33930;SDS011;20215;53.130;6.408;2022-12-07T09:24:35;2.47;;;0.65;;
33930;SDS011;20215;53.130;6.408;2022-12-07T09:27:01;1.65;;;0.95;;
33930;SDS011;20215;53.130;6.408;2022-12-07T09:29:27;3.95;;;1.00;;
33930;SDS011;20215;53.130;6.408;2022-12-07T09:31:52;7.05;;;1.75;;
33930;SDS011;20215;53.130;6.408;2022-12-07T09:34:18;1.15;;;0.95;;
33930;SDS011;20215;53.130;6.408;2022-12-07T09:36:44;1.52;;;0.95;;
33930;SDS011;20215;53.130;6.408;2022-12-07T09:39:09;4.25;;;1.33;;
33930;SDS011;20215;53.130;6.408;2022-12-07T09:41:39;1.77;;;0.80;;
33930;SDS011;20215;53.130;6.408;2022-12-07T09:44:12;3.60;;;1.10;;
33930;SDS011;20215;53.130;6.408;2022-12-07T09:46:40;3.30;;;1.00;;
33930;SDS011;20215;53.130;6.408;2022-12-07T09:49:14;3.85;;;1.00;;
33930;SDS011;20215;53.130;6.408;2022-12-07T09:51:43;3.72;;;0.88;;
33930;SDS011;20215;53.130;6.408;2022-12-07T09:54:12;2.00;;;0.90;;
33930;SDS011;20215;53.130;6.408;2022-12-07T09:56:39;2.67;;;1.02;;
33930;SDS011;20215;53.130;6.408;2022-12-07T09:59:04;3.20;;;0.75;;
33930;SDS011;20215;53.130;6.408;2022-12-07T10:01:31;2.03;;;1.20;;
33930;SDS011;20215;53.130;6.408;2022-12-07T10:04:02;1.15;;;0.50;;
33930;SDS011;20215;53.130;6.408;2022-12-07T10:06:31;2.20;;;0.80;;
33930;SDS011;20215;53.130;6.408;2022-12-07T10:08:57;2.20;;;0.93;;
33930;SDS011;20215;53.130;6.408;2022-12-07T10:11:23;2.30;;;1.08;;
33930;SDS011;20215;53.130;6.408;2022-12-07T10:13:51;2.05;;;0.52;;
33930;SDS011;20215;53.130;6.408;2022-12-07T10:18:50;2.47;;;0.65;;
33930;SDS011;20215;53.130;6.408;2022-12-07T10:21:17;2.30;;;0.82;;
33930;SDS011;20215;53.130;6.408;2022-12-07T10:24:01;1.63;;;0.90;;
33930;SDS011;20215;53.130;6.408;2022-12-07T10:29:01;3.42;;;0.77;;
33930;SDS011;20215;53.130;6.408;2022-12-07T10:31:46;2.45;;;0.80;;
33930;SDS011;20215;53.130;6.408;2022-12-07T10:34:22;2.25;;;0.70;;
33930;SDS011;20215;53.130;6.408;2022-12-07T10:36:54;4.05;;;1.00;;
33930;SDS011;20215;53.130;6.408;2022-12-07T10:44:47;1.17;;;0.70;;
33930;SDS011;20215;53.130;6.408;2022-12-07T10:47:18;1.23;;;0.68;;
33930;SDS011;20215;53.130;6.408;2022-12-07T10:55:42;2.25;;;1.38;;
33930;SDS011;20215;53.130;6.408;2022-12-07T11:10:05;0.95;;;0.70;;
33930;SDS011;20215;53.130;6.408;2022-12-07T11:12:54;1.95;;;0.40;;
33930;SDS011;20215;53.130;6.408;2022-12-07T11:15:31;1.77;;;0.50;;
33930;SDS011;20215;53.130;6.408;2022-12-07T11:21:34;1.60;;;0.50;;
33930;SDS011;20215;53.130;6.408;2022-12-07T11:24:17;1.83;;;0.77;;
33930;SDS011;20215;53.130;6.408;2022-12-07T11:38:17;1.33;;;0.60;;
33930;SDS011;20215;53.130;6.408;2022-12-07T11:40:50;2.92;;;0.60;;
33930;SDS011;20215;53.130;6.408;2022-12-07T11:43:26;1.45;;;0.52;;
33930;SDS011;20215;53.130;6.408;2022-12-07T11:45:58;1.90;;;0.40;;
33930;SDS011;20215;53.130;6.408;2022-12-07T11:48:30;0.65;;;0.30;;
33930;SDS011;20215;53.130;6.408;2022-12-07T11:53:37;1.52;;;0.57;;
33930;SDS011;20215;53.130;6.408;2022-12-07T11:58:39;2.05;;;0.32;;
33930;SDS011;20215;53.130;6.408;2022-12-07T12:03:46;1.95;;;0.40;;
33930;SDS011;20215;53.130;6.408;2022-12-07T12:06:13;1.13;;;0.60;;
33930;SDS011;20215;53.130;6.408;2022-12-07T12:08:43;1.88;;;0.65;;
33930;SDS011;20215;53.130;6.408;2022-12-07T12:13:57;0.40;;;0.40;;
33930;SDS011;20215;53.130;6.408;2022-12-07T12:16:49;1.25;;;0.28;;
33930;SDS011;20215;53.130;6.408;2022-12-07T12:22:12;1.20;;;0.30;;
33930;SDS011;20215;53.130;6.408;2022-12-07T12:24:43;1.90;;;0.50;;
33930;SDS011;20215;53.130;6.408;2022-12-07T12:27:18;4.30;;;0.77;;
33930;SDS011;20215;53.130;6.408;2022-12-07T12:29:55;3.10;;;0.40;;
33930;SDS011;20215;53.130;6.408;2022-12-07T12:32:24;1.10;;;0.30;;
33930;SDS011;20215;53.130;6.408;2022-12-07T12:37:52;0.63;;;0.25;;
33930;SDS011;20215;53.130;6.408;2022-12-07T12:43:26;1.83;;;0.50;;
33930;SDS011;20215;53.130;6.408;2022-12-07T12:48:55;2.22;;;0.95;;
33930;SDS011;20215;53.130;6.408;2022-12-07T12:51:40;0.20;;;0.20;;
33930;SDS011;20215;53.130;6.408;2022-12-07T12:54:20;0.93;;;0.40;;
33930;SDS011;20215;53.130;6.408;2022-12-07T12:56:53;0.47;;;0.17;;
33930;SDS011;20215;53.130;6.408;2022-12-07T12:59:30;1.70;;;0.53;;
33930;SDS011;20215;53.130;6.408;2022-12-07T13:02:15;0.98;;;0.35;;
33930;SDS011;20215;53.130;6.408;2022-12-07T13:04:53;1.02;;;0.47;;
33930;SDS011;20215;53.130;6.408;2022-12-07T13:10:21;0.52;;;0.25;;
33930;SDS011;20215;53.130;6.408;2022-12-07T13:15:47;0.60;;;0.20;;
33930;SDS011;20215;53.130;6.408;2022-12-07T13:28:43;0.63;;;0.20;;
33930;SDS011;20215;53.130;6.408;2022-12-07T13:33:42;0.35;;;0.10;;
33930;SDS011;20215;53.130;6.408;2022-12-07T13:36:12;0.10;;;0.10;;
33930;SDS011;20215;53.130;6.408;2022-12-07T13:38:58;1.23;;;0.30;;
33930;SDS011;20215;53.130;6.408;2022-12-07T13:41:28;1.15;;;0.50;;
33930;SDS011;20215;53.130;6.408;2022-12-07T13:49:18;1.33;;;0.28;;
33930;SDS011;20215;53.130;6.408;2022-12-07T13:51:46;0.45;;;0.45;;
33930;SDS011;20215;53.130;6.408;2022-12-07T13:54:13;0.70;;;0.45;;
33930;SDS011;20215;53.130;6.408;2022-12-07T13:56:39;1.60;;;0.30;;
33930;SDS011;20215;53.130;6.408;2022-12-07T13:59:12;1.27;;;0.35;;
33930;SDS011;20215;53.130;6.408;2022-12-07T14:01:44;1.10;;;0.30;;
33930;SDS011;20215;53.130;6.408;2022-12-07T14:06:58;1.95;;;0.30;;
33930;SDS011;20215;53.130;6.408;2022-12-07T14:09:26;4.80;;;0.63;;
33930;SDS011;20215;53.130;6.408;2022-12-07T14:11:54;2.80;;;0.52;;
33930;SDS011;20215;53.130;6.408;2022-12-07T14:14:24;2.05;;;0.40;;
33930;SDS011;20215;53.130;6.408;2022-12-07T14:24:57;1.27;;;0.40;;
33930;SDS011;20215;53.130;6.408;2022-12-07T14:27:33;1.55;;;0.35;;
33930;SDS011;20215;53.130;6.408;2022-12-07T14:30:00;1.23;;;0.82;;
33930;SDS011;20215;53.130;6.408;2022-12-07T14:32:27;3.65;;;0.70;;
33930;SDS011;20215;53.130;6.408;2022-12-07T14:34:57;1.00;;;0.50;;
33930;SDS011;20215;53.130;6.408;2022-12-07T14:37:29;0.40;;;0.40;;
33930;SDS011;20215;53.130;6.408;2022-12-07T14:39:56;0.30;;;0.30;;
33930;SDS011;20215;53.130;6.408;2022-12-07T14:42:23;0.63;;;0.20;;
33930;SDS011;20215;53.130;6.408;2022-12-07T14:44:52;1.92;;;0.32;;
33930;SDS011;20215;53.130;6.408;2022-12-07T14:47:17;2.08;;;0.57;;
33930;SDS011;20215;53.130;6.408;2022-12-07T14:49:43;0.38;;;0.22;;
33930;SDS011;20215;53.130;6.408;2022-12-07T14:52:16;2.72;;;0.30;;
33930;SDS011;20215;53.130;6.408;2022-12-07T14:54:44;1.58;;;0.30;;
33930;SDS011;20215;53.130;6.408;2022-12-07T14:57:10;2.03;;;0.40;;
33930;SDS011;20215;53.130;6.408;2022-12-07T14:59:36;0.60;;;0.28;;
33930;SDS011;20215;53.130;6.408;2022-12-07T15:02:01;0.93;;;0.30;;
33930;SDS011;20215;53.130;6.408;2022-12-07T15:04:27;1.33;;;0.40;;
33930;SDS011;20215;53.130;6.408;2022-12-07T15:07:00;1.85;;;0.30;;
33930;SDS011;20215;53.130;6.408;2022-12-07T15:09:27;1.15;;;0.52;;
33930;SDS011;20215;53.130;6.408;2022-12-07T15:11:53;1.15;;;0.60;;
33930;SDS011;20215;53.130;6.408;2022-12-07T15:14:19;2.55;;;0.43;;
33930;SDS011;20215;53.130;6.408;2022-12-07T15:16:44;1.30;;;0.30;;
33930;SDS011;20215;53.130;6.408;2022-12-07T15:19:14;1.33;;;0.20;;
33930;SDS011;20215;53.130;6.408;2022-12-07T15:21:42;0.82;;;0.22;;
33930;SDS011;20215;53.130;6.408;2022-12-07T15:24:08;0.40;;;0.32;;
33930;SDS011;20215;53.130;6.408;2022-12-07T15:26:35;0.93;;;0.32;;
33930;SDS011;20215;53.130;6.408;2022-12-07T15:29:01;1.40;;;0.50;;
33930;SDS011;20215;53.130;6.408;2022-12-07T15:31:27;1.17;;;0.40;;
33930;SDS011;20215;53.130;6.408;2022-12-07T15:33:52;1.92;;;0.45;;
33930;SDS011;20215;53.130;6.408;2022-12-07T15:36:22;0.75;;;0.40;;
33930;SDS011;20215;53.130;6.408;2022-12-07T15:38:49;1.98;;;0.40;;
33930;SDS011;20215;53.130;6.408;2022-12-07T15:41:16;1.00;;;0.30;;
33930;SDS011;20215;53.130;6.408;2022-12-07T15:43:42;2.53;;;0.50;;
33930;SDS011;20215;53.130;6.408;2022-12-07T15:46:33;0.60;;;0.30;;
33930;SDS011;20215;53.130;6.408;2022-12-07T15:49:04;0.85;;;0.30;;
33930;SDS011;20215;53.130;6.408;2022-12-07T15:51:34;0.68;;;0.50;;
33930;SDS011;20215;53.130;6.408;2022-12-07T15:53:59;1.17;;;0.47;;
33930;SDS011;20215;53.130;6.408;2022-12-07T15:56:25;0.70;;;0.70;;
33930;SDS011;20215;53.130;6.408;2022-12-07T15:58:50;2.65;;;0.60;;
33930;SDS011;20215;53.130;6.408;2022-12-07T16:01:17;0.70;;;0.40;;
33930;SDS011;20215;53.130;6.408;2022-12-07T16:03:44;1.08;;;0.28;;
33930;SDS011;20215;53.130;6.408;2022-12-07T16:06:10;2.03;;;0.50;;
33930;SDS011;20215;53.130;6.408;2022-12-07T16:08:36;1.77;;;0.85;;
33930;SDS011;20215;53.130;6.408;2022-12-07T16:11:06;0.88;;;0.30;;
33930;SDS011;20215;53.130;6.408;2022-12-07T16:13:33;0.40;;;0.40;;
33930;SDS011;20215;53.130;6.408;2022-12-07T16:16:02;0.50;;;0.40;;
33930;SDS011;20215;53.130;6.408;2022-12-07T16:18:28;0.90;;;0.30;;
33930;SDS011;20215;53.130;6.408;2022-12-07T16:20:54;0.90;;;0.30;;
33930;SDS011;20215;53.130;6.408;2022-12-07T16:23:20;1.23;;;0.82;;
33930;SDS011;20215;53.130;6.408;2022-12-07T16:25:45;0.65;;;0.30;;
33930;SDS011;20215;53.130;6.408;2022-12-07T16:28:11;3.53;;;0.47;;
33930;SDS011;20215;53.130;6.408;2022-12-07T16:30:36;0.60;;;0.45;;
33930;SDS011;20215;53.130;6.408;2022-12-07T16:33:02;2.08;;;0.52;;
33930;SDS011;20215;53.130;6.408;2022-12-07T16:35:28;1.17;;;0.30;;
33930;SDS011;20215;53.130;6.408;2022-12-07T16:37:53;0.50;;;0.32;;
33930;SDS011;20215;53.130;6.408;2022-12-07T16:40:19;0.90;;;0.40;;
33930;SDS011;20215;53.130;6.408;2022-12-07T16:42:44;4.78;;;0.77;;
33930;SDS011;20215;53.130;6.408;2022-12-07T16:45:10;0.28;;;0.28;;
33930;SDS011;20215;53.130;6.408;2022-12-07T16:47:38;0.88;;;0.40;;
33930;SDS011;20215;53.130;6.408;2022-12-07T16:50:05;1.63;;;0.50;;
33930;SDS011;20215;53.130;6.408;2022-12-07T16:52:32;0.77;;;0.30;;
33930;SDS011;20215;53.130;6.408;2022-12-07T16:54:58;0.65;;;0.50;;
33930;SDS011;20215;53.130;6.408;2022-12-07T16:57:24;3.63;;;0.82;;
33930;SDS011;20215;53.130;6.408;2022-12-07T16:59:51;1.35;;;0.52;;
33930;SDS011;20215;53.130;6.408;2022-12-07T17:02:16;0.60;;;0.40;;
33930;SDS011;20215;53.130;6.408;2022-12-07T17:04:42;0.98;;;0.40;;
33930;SDS011;20215;53.130;6.408;2022-12-07T17:07:08;1.67;;;0.50;;
33930;SDS011;20215;53.130;6.408;2022-12-07T17:09:34;0.35;;;0.35;;
33930;SDS011;20215;53.130;6.408;2022-12-07T17:12:00;1.00;;;0.52;;
33930;SDS011;20215;53.130;6.408;2022-12-07T17:14:25;1.98;;;0.52;;
33930;SDS011;20215;53.130;6.408;2022-12-07T17:17:10;1.25;;;0.50;;